Time;durP1;ratioP1;P1;durP2;ratioP2;P2;SDS_P1;SDS_P2;PMS_P1;PMS_P2;Temp;Humidity;BMP_temperature;BMP_pressure;BME280_temperature;BME280_humidity;BME280_pressure;Samples;Min_cycle;Max_cycle;Signal;HPM_P1;HPM_P2
2022/04/04 00:00:57;;;;;;;9.93;6.17;;;4.50;99.90;;;;;;5075166;28;20223;-67
2022/04/04 00:03:22;;;;;;;8.07;6.50;;;4.50;99.90;;;;;;5046339;28;20275;-68
2022/04/04 00:05:48;;;;;;;10.63;6.43;;;4.50;99.90;;;;;;5063768;28;20216;-68
2022/04/04 00:08:14;;;;;;;8.67;7.03;;;4.50;99.90;;;;;;5074877;28;20188;-67
2022/04/04 00:10:40;;;;;;;8.77;6.10;;;4.40;99.90;;;;;;5074798;28;20223;-67
2022/04/04 00:13:06;;;;;;;11.70;6.57;;;4.30;99.90;;;;;;5073813;28;20226;-67
2022/04/04 00:15:31;;;;;;;8.77;5.83;;;4.40;99.90;;;;;;5092652;28;20586;-67
2022/04/04 00:17:57;;;;;;;11.03;5.97;;;4.40;99.90;;;;;;5092149;28;20601;-67
2022/04/04 00:20:23;;;;;;;6.17;5.57;;;4.30;99.90;;;;;;5092465;28;20213;-68
2022/04/04 00:22:49;;;;;;;9.47;5.20;;;4.30;99.90;;;;;;5091785;28;20600;-67
2022/04/04 00:25:14;;;;;;;7.43;5.90;;;4.10;99.90;;;;;;5057791;28;20215;-67
2022/04/04 00:27:40;;;;;;;7.13;6.30;;;4.30;99.90;;;;;;5074347;28;20552;-67
2022/04/04 00:30:07;;;;;;;8.33;6.37;;;4.40;99.90;;;;;;5057860;28;20581;-66
2022/04/04 00:32:33;;;;;;;8.20;5.97;;;4.20;99.90;;;;;;5067319;28;20193;-67
2022/04/04 00:35:00;;;;;;;8.13;5.93;;;4.20;99.90;;;;;;5074415;28;20641;-67
2022/04/04 00:37:26;;;;;;;8.97;6.03;;;4.20;99.90;;;;;;5057998;28;20181;-67
2022/04/04 00:39:52;;;;;;;9.63;5.80;;;4.20;99.90;;;;;;5081993;28;20213;-67
2022/04/04 00:42:18;;;;;;;9.40;5.90;;;4.30;99.90;;;;;;5066821;28;20185;-67
2022/04/04 00:44:45;;;;;;;12.63;5.83;;;4.20;99.90;;;;;;5071343;28;20260;-67
2022/04/04 00:47:12;;;;;;;8.30;5.67;;;4.00;99.90;;;;;;5072493;28;20538;-67
2022/04/04 00:49:37;;;;;;;8.70;5.97;;;4.00;99.90;;;;;;5090484;28;20556;-67
2022/04/04 00:52:05;;;;;;;11.17;5.80;;;4.00;99.90;;;;;;5073135;28;20179;-67
2022/04/04 00:54:31;;;;;;;7.03;5.33;;;4.10;99.90;;;;;;5067012;28;20211;-67
2022/04/04 00:57:00;;;;;;;9.07;6.10;;;4.10;99.90;;;;;;5060470;28;20230;-68
2022/04/04 00:59:26;;;;;;;7.00;5.90;;;4.10;99.90;;;;;;5095656;28;20278;-68
2022/04/04 01:01:52;;;;;;;9.50;5.57;;;4.20;99.90;;;;;;5095452;28;20184;-68
2022/04/04 01:04:17;;;;;;;8.63;6.13;;;4.20;99.90;;;;;;5061445;28;20185;-67
2022/04/04 01:06:46;;;;;;;7.60;5.23;;;4.10;99.90;;;;;;5043851;28;20295;-67
2022/04/04 01:09:15;;;;;;;9.30;5.67;;;4.20;99.90;;;;;;5077955;28;20189;-67
2022/04/04 01:12:07;;;;;;;8.50;6.20;;;4.00;99.90;;;;;;5075846;28;20177;-67
2022/04/04 01:14:38;;;;;;;8.80;6.30;;;4.10;99.90;;;;;;5058046;28;20181;-70
2022/04/04 01:17:06;;;;;;;7.83;5.50;;;4.00;99.90;;;;;;5065685;28;20646;-67
2022/04/04 01:19:32;;;;;;;6.57;5.17;;;3.80;99.90;;;;;;5076270;28;20212;-67
2022/04/04 01:21:57;;;;;;;9.10;6.13;;;3.80;99.90;;;;;;5078404;28;20697;-67
2022/04/04 01:24:24;;;;;;;13.13;7.40;;;3.80;99.90;;;;;;5075358;28;20177;-67
2022/04/04 01:26:52;;;;;;;10.60;5.53;;;3.70;99.90;;;;;;5095547;28;20189;-67
2022/04/04 01:29:19;;;;;;;8.93;6.40;;;3.80;99.90;;;;;;5095704;28;20192;-67
2022/04/04 01:31:45;;;;;;;11.10;6.20;;;3.80;99.90;;;;;;5076886;28;20587;-68
2022/04/04 01:34:11;;;;;;;8.63;6.40;;;3.80;99.90;;;;;;5093682;28;20276;-68
2022/04/04 01:36:36;;;;;;;8.17;5.73;;;3.70;99.90;;;;;;5058104;28;20303;-68
2022/04/04 01:39:02;;;;;;;9.87;6.37;;;3.70;99.90;;;;;;5074466;28;20208;-68
2022/04/04 01:41:28;;;;;;;8.60;6.00;;;3.60;99.90;;;;;;5073451;28;20276;-68
2022/04/04 01:43:54;;;;;;;11.33;6.83;;;3.60;99.90;;;;;;5064407;28;20644;-68
2022/04/04 01:46:26;;;;;;;8.40;5.80;;;3.50;99.90;;;;;;5093441;28;20219;-69
2022/04/04 01:49:00;;;;;;;10.20;5.97;;;3.60;99.90;;;;;;5077299;28;20184;-68
2022/04/04 01:51:27;;;;;;;9.90;6.73;;;3.80;99.90;;;;;;5085313;28;20235;-68
2022/04/04 01:53:53;;;;;;;11.03;6.93;;;3.70;99.90;;;;;;5057971;28;20181;-68
2022/04/04 01:56:20;;;;;;;9.17;6.13;;;3.60;99.90;;;;;;5071145;28;20585;-67
2022/04/04 01:58:46;;;;;;;10.77;7.13;;;3.60;99.90;;;;;;5094731;28;20206;-68
2022/04/04 02:01:17;;;;;;;13.83;7.93;;;3.60;99.90;;;;;;5076492;28;20189;-68
2022/04/04 02:03:46;;;;;;;16.20;10.90;;;3.70;99.90;;;;;;5094329;28;20180;-68
2022/04/04 02:06:11;;;;;;;16.50;11.57;;;3.70;99.90;;;;;;5075628;28;20184;-68
2022/04/04 02:08:38;;;;;;;19.07;11.57;;;3.70;99.90;;;;;;5076262;28;20188;-68
2022/04/04 02:11:05;;;;;;;15.57;10.70;;;3.60;99.90;;;;;;5076467;28;20187;-67
2022/04/04 02:13:31;;;;;;;17.30;10.53;;;3.60;99.90;;;;;;5075102;28;20195;-68
2022/04/04 02:16:00;;;;;;;12.97;8.97;;;3.40;99.90;;;;;;5075490;28;20208;-68
2022/04/04 02:18:27;;;;;;;12.37;8.07;;;3.40;99.90;;;;;;5076065;28;20173;-68
2022/04/04 02:20:52;;;;;;;10.10;7.00;;;3.40;99.90;;;;;;5093512;28;20200;-72
2022/04/04 02:23:18;;;;;;;10.27;7.10;;;3.50;99.90;;;;;;5075663;28;20200;-68
2022/04/04 02:25:45;;;;;;;12.07;8.50;;;3.50;99.90;;;;;;5059655;28;20184;-68
2022/04/04 02:28:11;;;;;;;11.93;6.77;;;3.40;99.90;;;;;;5057528;28;20227;-68
2022/04/04 02:30:37;;;;;;;10.37;6.57;;;3.50;99.90;;;;;;5059415;28;20185;-66
2022/04/04 02:33:03;;;;;;;8.57;6.70;;;3.70;99.90;;;;;;5075460;28;20187;-65
2022/04/04 02:35:29;;;;;;;10.73;7.30;;;3.70;99.90;;;;;;5075678;28;20189;-66
2022/04/04 02:37:55;;;;;;;12.30;10.90;;;3.80;99.90;;;;;;5075569;28;20169;-65
2022/04/04 02:40:21;;;;;;;10.70;7.13;;;3.50;99.90;;;;;;5076355;28;20204;-66
2022/04/04 02:42:47;;;;;;;9.07;6.73;;;3.50;99.90;;;;;;5076007;28;20193;-66
2022/04/04 02:45:13;;;;;;;13.27;7.73;;;3.60;99.90;;;;;;5093712;28;20226;-66
2022/04/04 02:47:39;;;;;;;14.40;8.03;;;3.40;99.90;;;;;;5093800;28;20210;-66
2022/04/04 02:50:06;;;;;;;9.53;7.80;;;3.40;99.90;;;;;;5077427;28;20338;-66
2022/04/04 02:52:31;;;;;;;13.40;7.97;;;3.50;99.90;;;;;;5073310;28;20189;-66
2022/04/04 02:54:57;;;;;;;10.40;7.27;;;3.50;99.90;;;;;;5060103;28;20192;-66
2022/04/04 02:57:23;;;;;;;13.13;7.53;;;3.50;99.90;;;;;;5092437;28;20543;-65
2022/04/04 02:59:49;;;;;;;10.70;7.53;;;3.50;99.90;;;;;;5075992;28;20216;-67
2022/04/04 03:02:15;;;;;;;14.83;9.93;;;3.40;99.90;;;;;;5093093;28;20195;-67
2022/04/04 03:04:42;;;;;;;9.97;7.67;;;3.50;99.90;;;;;;5045152;28;20646;-67
2022/04/04 03:07:09;;;;;;;15.00;9.17;;;3.50;99.90;;;;;;5083286;28;20217;-66
2022/04/04 03:09:35;;;;;;;15.53;8.60;;;3.60;99.90;;;;;;5075596;28;20223;-66
2022/04/04 03:12:01;;;;;;;20.67;9.67;;;3.60;99.90;;;;;;5070184;28;20185;-66
2022/04/04 03:14:28;;;;;;;13.57;9.37;;;3.40;99.90;;;;;;5059544;28;20176;-67
2022/04/04 03:16:54;;;;;;;20.67;9.63;;;3.60;99.90;;;;;;5055731;28;20184;-66
2022/04/04 03:19:20;;;;;;;15.63;9.97;;;3.70;99.90;;;;;;5081780;28;20209;-67
2022/04/04 03:21:45;;;;;;;17.77;10.53;;;3.70;99.90;;;;;;5073804;28;20197;-67
2022/04/04 03:24:12;;;;;;;15.03;10.33;;;3.80;99.90;;;;;;5076011;28;20195;-67
2022/04/04 03:26:37;;;;;;;14.27;9.63;;;3.60;99.90;;;;;;5092453;28;20649;-67
2022/04/04 03:29:03;;;;;;;14.93;11.23;;;3.50;99.90;;;;;;5075072;28;20180;-67
2022/04/04 03:31:29;;;;;;;13.00;10.33;;;3.50;99.90;;;;;;5092566;28;20184;-67
2022/04/04 03:33:55;;;;;;;16.40;9.67;;;3.50;99.90;;;;;;5074760;28;20195;-67
2022/04/04 03:36:21;;;;;;;13.73;9.77;;;3.50;99.90;;;;;;5074788;28;20185;-67
2022/04/04 03:38:47;;;;;;;13.27;11.23;;;3.50;99.90;;;;;;5075004;28;20177;-67
2022/04/04 03:41:13;;;;;;;17.73;12.27;;;3.50;99.90;;;;;;5093107;28;20237;-67
2022/04/04 03:43:39;;;;;;;21.77;10.87;;;3.60;99.90;;;;;;5092720;28;20698;-67
2022/04/04 03:46:04;;;;;;;17.53;11.77;;;3.60;99.90;;;;;;5074597;28;20625;-66
2022/04/04 03:48:30;;;;;;;20.47;10.80;;;3.50;99.90;;;;;;5091804;28;20306;-67
2022/04/04 03:50:56;;;;;;;24.17;11.30;;;3.50;99.90;;;;;;5041254;28;20191;-67
2022/04/04 03:53:22;;;;;;;24.47;11.53;;;3.50;99.90;;;;;;5042194;28;20184;-67
2022/04/04 03:55:50;;;;;;;19.03;11.00;;;3.50;99.90;;;;;;5074761;28;20199;-67
2022/04/04 03:58:16;;;;;;;15.57;10.77;;;3.70;99.90;;;;;;5074022;28;20203;-67
2022/04/04 04:00:42;;;;;;;15.63;10.60;;;3.70;99.90;;;;;;5057702;28;20216;-67
2022/04/04 04:03:09;;;;;;;16.30;11.47;;;3.60;99.90;;;;;;5092407;28;20192;-68
2022/04/04 04:05:36;;;;;;;15.77;12.13;;;3.70;99.90;;;;;;5092583;28;20229;-67
2022/04/04 04:08:01;;;;;;;17.20;11.00;;;3.60;99.90;;;;;;5074719;28;20188;-67
2022/04/04 04:10:27;;;;;;;14.83;10.10;;;3.40;99.90;;;;;;5092095;28;20241;-72
2022/04/04 04:12:53;;;;;;;14.10;9.73;;;3.50;99.90;;;;;;5073042;28;20572;-68
2022/04/04 04:15:21;;;;;;;18.30;11.17;;;3.60;99.90;;;;;;5057894;28;20188;-68
2022/04/04 04:17:51;;;;;;;18.27;10.60;;;3.50;99.90;;;;;;5092744;28;20696;-69
2022/04/04 04:20:20;;;;;;;18.03;12.10;;;3.50;99.90;;;;;;5043817;28;20229;-66
2022/04/04 04:22:49;;;;;;;15.60;11.30;;;3.60;99.90;;;;;;5073363;28;20271;-68
2022/04/04 04:25:15;;;;;;;15.73;11.20;;;3.60;99.90;;;;;;5073235;28;20173;-68
2022/04/04 04:27:43;;;;;;;14.63;10.47;;;3.60;99.90;;;;;;5091909;28;20185;-67
2022/04/04 04:30:09;;;;;;;23.87;11.63;;;3.50;99.90;;;;;;5092200;28;20189;-68
2022/04/04 04:32:35;;;;;;;28.83;13.50;;;3.50;99.90;;;;;;5076503;28;20185;-68
2022/04/04 04:35:01;;;;;;;14.23;10.63;;;3.60;99.90;;;;;;5095873;28;20550;-67
2022/04/04 04:37:27;;;;;;;16.47;10.33;;;3.60;99.90;;;;;;5096526;28;20184;-67
2022/04/04 04:39:53;;;;;;;15.60;9.93;;;3.50;99.90;;;;;;5078161;28;20212;-66
2022/04/04 04:42:18;;;;;;;17.97;10.70;;;3.50;99.90;;;;;;5096475;28;20184;-67
2022/04/04 04:44:45;;;;;;;15.23;10.30;;;3.50;99.90;;;;;;5061184;28;20534;-67
2022/04/04 04:47:11;;;;;;;14.37;9.67;;;3.60;99.90;;;;;;5077877;28;20218;-67
2022/04/04 04:49:37;;;;;;;13.53;9.20;;;3.60;99.90;;;;;;5077316;28;20674;-67
2022/04/04 04:52:03;;;;;;;14.13;9.23;;;3.50;99.90;;;;;;5095436;28;20186;-67
2022/04/04 04:54:32;;;;;;;14.10;10.40;;;3.60;99.90;;;;;;5096193;28;20201;-67
2022/04/04 04:56:58;;;;;;;17.20;10.87;;;3.60;99.90;;;;;;5095646;28;20267;-67
2022/04/04 04:59:23;;;;;;;12.73;9.30;;;3.70;99.90;;;;;;5077268;28;20748;-67
2022/04/04 05:01:49;;;;;;;15.57;9.13;;;3.80;99.90;;;;;;5043334;28;20192;-67
2022/04/04 05:04:15;;;;;;;14.10;9.23;;;3.70;99.90;;;;;;5059491;28;20676;-67
2022/04/04 05:06:41;;;;;;;14.13;9.93;;;3.80;99.90;;;;;;5087442;28;20271;-67
2022/04/04 05:09:06;;;;;;;11.53;10.00;;;3.80;99.90;;;;;;5078003;28;20189;-67
2022/04/04 05:11:32;;;;;;;14.70;9.97;;;3.80;99.90;;;;;;5059537;28;20229;-67
2022/04/04 05:13:58;;;;;;;12.73;9.93;;;3.80;99.90;;;;;;5095470;28;20184;-68
2022/04/04 05:16:28;;;;;;;12.77;9.30;;;3.90;99.90;;;;;;5060718;28;20181;-66
2022/04/04 05:18:55;;;;;;;9.83;8.70;;;4.00;99.90;;;;;;5061659;28;20184;-67
2022/04/04 05:21:21;;;;;;;12.90;9.63;;;4.00;99.90;;;;;;5077890;28;20636;-66
2022/04/04 05:23:47;;;;;;;12.27;10.57;;;4.20;99.90;;;;;;5093697;28;20189;-66
2022/04/04 05:26:13;;;;;;;11.60;9.20;;;4.20;99.90;;;;;;5077287;28;20177;-67
2022/04/04 05:28:39;;;;;;;16.73;11.17;;;4.20;99.90;;;;;;5095328;28;20188;-67
2022/04/04 05:31:05;;;;;;;13.77;8.63;;;4.10;99.90;;;;;;5077486;28;20268;-67
2022/04/04 05:33:31;;;;;;;14.57;8.57;;;4.10;99.90;;;;;;5060879;28;20645;-67
2022/04/04 05:35:56;;;;;;;12.60;9.40;;;4.10;99.90;;;;;;5060444;28;20185;-66
2022/04/04 05:38:22;;;;;;;13.23;9.23;;;4.10;99.90;;;;;;5044348;28;20173;-65
2022/04/04 05:40:48;;;;;;;11.27;8.00;;;4.30;99.90;;;;;;5060030;28;20219;-66
2022/04/04 05:43:13;;;;;;;10.57;9.47;;;4.40;99.90;;;;;;5058242;28;20284;-67
2022/04/04 05:45:39;;;;;;;13.63;8.73;;;4.50;99.90;;;;;;5095242;28;20613;-67
2022/04/04 05:48:06;;;;;;;18.47;9.90;;;4.60;99.90;;;;;;5077661;28;20717;-67
2022/04/04 05:50:33;;;;;;;16.23;8.27;;;4.60;99.90;;;;;;5093626;28;20215;-66
2022/04/04 05:52:59;;;;;;;14.83;8.60;;;4.60;99.90;;;;;;5094855;28;20177;-67
2022/04/04 05:55:25;;;;;;;12.57;9.03;;;4.70;99.90;;;;;;5073726;28;20185;-67
2022/04/04 05:57:50;;;;;;;14.30;8.63;;;4.70;99.90;;;;;;5085589;28;20549;-70
2022/04/04 06:00:16;;;;;;;18.13;9.73;;;4.80;99.90;;;;;;5080871;28;20221;-66
2022/04/04 06:02:44;;;;;;;16.13;8.77;;;4.80;99.90;;;;;;5076805;28;20196;-65
2022/04/04 06:05:11;;;;;;;15.43;9.17;;;4.90;99.90;;;;;;5076801;28;20524;-66
2022/04/04 06:07:40;;;;;;;17.33;7.97;;;5.10;99.90;;;;;;5087131;28;20591;-67
2022/04/04 06:10:07;;;;;;;15.23;8.90;;;5.10;99.90;;;;;;5068837;28;20196;-67
2022/04/04 06:12:38;;;;;;;18.73;9.77;;;5.30;99.90;;;;;;5057329;28;20189;-66
2022/04/04 06:15:05;;;;;;;17.73;9.23;;;5.40;99.90;;;;;;5043415;28;20176;-66
2022/04/04 06:17:30;;;;;;;19.10;9.30;;;5.40;99.90;;;;;;5076769;28;21571;-67
2022/04/04 06:19:56;;;;;;;13.13;8.80;;;5.60;99.90;;;;;;5092976;28;20573;-67
2022/04/04 06:22:22;;;;;;;14.07;8.93;;;5.90;99.90;;;;;;5094486;28;20177;-67
2022/04/04 06:24:49;;;;;;;13.40;8.40;;;5.90;99.90;;;;;;5094588;28;20663;-67
2022/04/04 06:27:17;;;;;;;13.20;8.90;;;5.90;99.90;;;;;;5094101;28;20185;-67
2022/04/04 06:29:45;;;;;;;12.47;8.53;;;5.80;99.90;;;;;;5075014;28;20611;-67
2022/04/04 06:32:11;;;;;;;16.77;8.73;;;5.70;99.90;;;;;;5094191;28;20560;-67
2022/04/04 06:34:37;;;;;;;15.00;8.90;;;5.80;99.90;;;;;;5055725;28;20196;-67
2022/04/04 06:37:04;;;;;;;14.50;8.77;;;6.00;99.90;;;;;;5076412;28;20187;-67
2022/04/04 06:39:30;;;;;;;16.27;9.70;;;6.10;99.90;;;;;;5075738;28;20212;-67
2022/04/04 06:41:56;;;;;;;11.03;8.07;;;6.10;99.90;;;;;;5058676;28;20238;-66
2022/04/04 06:44:23;;;;;;;13.87;9.07;;;6.30;99.90;;;;;;5074945;28;20568;-67
2022/04/04 06:46:49;;;;;;;18.53;9.40;;;6.10;99.90;;;;;;5059218;28;20184;-67
2022/04/04 06:49:15;;;;;;;9.93;8.70;;;6.00;99.90;;;;;;5043196;28;20189;-66
2022/04/04 06:51:40;;;;;;;15.23;8.00;;;6.10;99.90;;;;;;5074674;28;20189;-68
2022/04/04 06:54:07;;;;;;;12.53;8.93;;;6.20;99.90;;;;;;5076666;28;20177;-66
2022/04/04 06:56:34;;;;;;;12.83;9.30;;;6.30;99.90;;;;;;5074381;28;20237;-67
2022/04/04 06:59:01;;;;;;;9.40;8.40;;;6.40;99.90;;;;;;5075331;28;20200;-67
2022/04/04 07:01:26;;;;;;;14.10;8.50;;;6.40;99.90;;;;;;5075708;28;20189;-65
2022/04/04 07:03:52;;;;;;;13.97;9.30;;;6.70;99.90;;;;;;5092674;28;20197;-67
2022/04/04 07:06:18;;;;;;;15.23;9.13;;;6.60;99.90;;;;;;5075697;28;20180;-67
2022/04/04 07:08:44;;;;;;;12.33;9.10;;;6.70;99.90;;;;;;5075486;28;20263;-67
2022/04/04 07:11:10;;;;;;;13.63;8.73;;;6.80;99.90;;;;;;5093367;28;20196;-66
2022/04/04 07:13:40;;;;;;;13.90;8.87;;;6.90;99.90;;;;;;5057811;28;20250;-67
2022/04/04 07:16:06;;;;;;;10.27;8.30;;;6.90;99.90;;;;;;5092342;28;20185;-68
2022/04/04 07:18:32;;;;;;;12.70;9.00;;;7.20;99.90;;;;;;5055577;28;20259;-67
2022/04/04 07:20:58;;;;;;;15.87;8.93;;;7.50;99.90;;;;;;5069673;28;20258;-67
2022/04/04 07:23:24;;;;;;;12.30;8.33;;;7.80;99.90;;;;;;5092983;28;20249;-68
2022/04/04 07:25:50;;;;;;;12.60;9.00;;;7.80;99.90;;;;;;5074258;28;20633;-67
2022/04/04 07:28:16;;;;;;;18.07;9.03;;;7.90;99.90;;;;;;5072841;28;20652;-65
2022/04/04 07:30:43;;;;;;;13.90;8.97;;;8.10;99.90;;;;;;5090523;28;20183;-67
2022/04/04 07:33:10;;;;;;;13.70;9.13;;;8.10;99.90;;;;;;5056271;28;20203;-67
2022/04/04 07:35:36;;;;;;;10.50;7.33;;;8.00;99.90;;;;;;5066250;28;20544;-67
2022/04/04 07:38:01;;;;;;;10.10;8.20;;;8.10;99.90;;;;;;5093908;28;20180;-67
2022/04/04 07:40:28;;;;;;;14.50;9.30;;;8.00;99.90;;;;;;5092026;28;20615;-66
2022/04/04 07:42:54;;;;;;;12.70;9.43;;;8.00;99.90;;;;;;5041948;28;20181;-67
2022/04/04 07:45:20;;;;;;;19.93;8.27;;;8.10;99.90;;;;;;5074937;28;20173;-67
2022/04/04 07:47:47;;;;;;;12.77;8.33;;;8.30;99.90;;;;;;5092250;28;20633;-65
2022/04/04 07:50:14;;;;;;;17.83;7.63;;;8.60;99.90;;;;;;5074937;28;20213;-67
2022/04/04 07:52:40;;;;;;;13.77;8.23;;;8.60;99.90;;;;;;5074696;28;20237;-67
2022/04/04 07:55:07;;;;;;;11.87;8.07;;;8.60;99.90;;;;;;5093019;28;20274;-66
2022/04/04 07:57:34;;;;;;;14.23;8.60;;;8.70;99.90;;;;;;5091478;28;20275;-67
2022/04/04 08:00:00;;;;;;;17.53;7.80;;;8.70;99.90;;;;;;5074545;28;20349;-66
2022/04/04 08:02:26;;;;;;;12.90;8.53;;;8.90;99.90;;;;;;5093033;28;20203;-66
2022/04/04 08:04:51;;;;;;;13.80;8.90;;;8.90;99.90;;;;;;5092732;28;20188;-66
2022/04/04 08:07:19;;;;;;;13.43;8.53;;;9.00;99.90;;;;;;5073007;28;20181;-67
2022/04/04 08:09:46;;;;;;;14.07;8.93;;;8.80;99.90;;;;;;5058021;28;20188;-67
2022/04/04 08:12:12;;;;;;;10.60;7.80;;;8.90;99.90;;;;;;5074914;28;20181;-66
2022/04/04 08:14:38;;;;;;;12.20;8.67;;;8.60;99.90;;;;;;5091054;28;20264;-67
2022/04/04 08:17:05;;;;;;;11.63;8.40;;;8.40;99.90;;;;;;5058264;28;20651;-66
2022/04/04 08:19:31;;;;;;;10.17;7.63;;;8.50;99.90;;;;;;5074182;28;20212;-65
2022/04/04 08:21:56;;;;;;;11.07;7.13;;;8.30;99.90;;;;;;5090927;28;20189;-67
2022/04/04 08:24:22;;;;;;;11.37;7.83;;;8.20;99.90;;;;;;5074172;28;20180;-67
2022/04/04 08:26:49;;;;;;;21.10;9.97;;;8.10;99.90;;;;;;5057723;28;20189;-67
2022/04/04 08:29:14;;;;;;;15.03;8.90;;;8.10;99.90;;;;;;5040636;28;20189;-66
2022/04/04 08:31:40;;;;;;;12.70;8.43;;;8.20;99.90;;;;;;5072486;28;20722;-66
2022/04/04 08:34:07;;;;;;;16.00;9.47;;;8.10;99.90;;;;;;5074495;28;20192;-66
2022/04/04 08:36:32;;;;;;;16.50;9.43;;;8.00;99.90;;;;;;5057935;28;20637;-67
2022/04/04 08:38:58;;;;;;;12.67;9.03;;;8.00;99.90;;;;;;5041135;28;20192;-66
2022/04/04 08:41:25;;;;;;;14.47;9.53;;;8.10;99.90;;;;;;5074439;28;20195;-66
2022/04/04 08:43:57;;;;;;;13.23;9.17;;;7.90;99.90;;;;;;5073269;28;20184;-66
2022/04/04 08:46:24;;;;;;;11.30;9.93;;;7.70;99.90;;;;;;5092738;28;20747;-66
2022/04/04 08:48:52;;;;;;;15.33;10.07;;;7.70;99.90;;;;;;5041119;28;20191;-65
2022/04/04 08:51:18;;;;;;;15.87;9.53;;;7.60;99.90;;;;;;5091092;28;20704;-65
2022/04/04 08:53:44;;;;;;;15.33;10.37;;;7.80;99.90;;;;;;5073996;28;20319;-65
2022/04/04 08:56:12;;;;;;;13.83;9.50;;;7.80;99.90;;;;;;5073897;28;20272;-66
2022/04/04 08:58:38;;;;;;;13.70;9.27;;;7.60;99.90;;;;;;5073506;28;20208;-66
2022/04/04 09:01:04;;;;;;;16.63;10.23;;;7.50;99.90;;;;;;5073592;28;20204;-66
2022/04/04 09:03:34;;;;;;;16.77;10.17;;;7.30;99.90;;;;;;5092146;28;20682;-65
2022/04/04 09:06:02;;;;;;;20.57;9.97;;;7.20;99.90;;;;;;5074215;28;20212;-66
2022/04/04 09:08:28;;;;;;;14.23;9.53;;;7.30;99.90;;;;;;5091866;28;20212;-66
2022/04/04 09:10:57;;;;;;;18.00;10.40;;;7.30;99.90;;;;;;5074361;28;20253;-66
2022/04/04 09:13:27;;;;;;;15.77;9.70;;;7.40;99.90;;;;;;5054833;28;20297;-66
2022/04/04 09:15:59;;;;;;;20.03;10.27;;;7.50;99.90;;;;;;5090207;28;20191;-63
2022/04/04 09:18:37;;;;;;;18.27;10.87;;;7.60;99.90;;;;;;5091468;28;20234;-66
2022/04/04 09:21:04;;;;;;;14.57;9.17;;;7.60;99.90;;;;;;5095647;28;20200;-67
2022/04/04 09:23:54;;;;;;;19.60;10.03;;;7.70;99.90;;;;;;5077459;28;20197;-67
2022/04/04 09:26:53;;;;;;;14.40;10.20;;;7.70;99.90;;;;;;5076204;28;20177;-67
2022/04/04 09:29:20;;;;;;;14.80;9.27;;;7.80;99.90;;;;;;5028259;28;20208;-67
2022/04/04 09:32:03;;;;;;;13.93;9.10;;;7.80;99.90;;;;;;5060237;28;20181;-67
2022/04/04 09:34:28;;;;;;;15.00;9.70;;;7.90;99.90;;;;;;5078342;28;20196;-68
2022/04/04 09:36:54;;;;;;;16.60;10.00;;;8.10;99.90;;;;;;5095259;28;20212;-66
2022/04/04 09:39:20;;;;;;;12.70;9.97;;;8.10;99.90;;;;;;5077079;28;20207;-67
2022/04/04 09:41:46;;;;;;;13.67;9.17;;;8.10;99.90;;;;;;5095439;28;20185;-67
2022/04/04 09:44:12;;;;;;;16.77;10.33;;;8.30;99.90;;;;;;5077098;28;20204;-67
2022/04/04 09:46:42;;;;;;;12.97;9.13;;;8.20;99.90;;;;;;5076301;28;20193;-65
2022/04/04 09:49:09;;;;;;;15.23;8.73;;;8.30;99.90;;;;;;5095080;28;20172;-68
2022/04/04 09:51:41;;;;;;;12.20;8.73;;;8.00;99.90;;;;;;5070508;28;20191;-68
2022/04/04 09:54:10;;;;;;;13.87;8.90;;;7.90;99.90;;;;;;5085323;28;20543;-67
2022/04/04 09:56:38;;;;;;;11.13;8.57;;;7.90;99.90;;;;;;5093592;28;20199;-67
2022/04/04 09:59:04;;;;;;;14.60;10.50;;;7.90;99.90;;;;;;5076867;28;20200;-68
2022/04/04 10:01:32;;;;;;;14.00;10.60;;;7.90;99.90;;;;;;5094842;28;20189;-67
2022/04/04 10:04:02;;;;;;;12.67;9.13;;;7.80;99.90;;;;;;5093976;28;20188;-67
2022/04/04 10:06:29;;;;;;;18.50;9.90;;;7.90;99.90;;;;;;5076780;28;20196;-68
2022/04/04 10:09:00;;;;;;;12.03;9.33;;;7.60;99.90;;;;;;5076797;28;20180;-67
2022/04/04 10:11:27;;;;;;;12.53;8.53;;;7.60;99.90;;;;;;5094542;28;20172;-67
2022/04/04 10:13:54;;;;;;;12.30;8.63;;;7.60;99.90;;;;;;5076546;28;20202;-72
2022/04/04 10:16:22;;;;;;;10.83;8.73;;;7.60;99.90;;;;;;5076353;28;20260;-68
2022/04/04 10:18:50;;;;;;;15.30;9.47;;;7.40;99.90;;;;;;5076125;28;20177;-66
2022/04/04 10:21:18;;;;;;;14.00;10.67;;;7.40;99.90;;;;;;5094612;28;20201;-67
2022/04/04 10:23:47;;;;;;;13.83;9.30;;;7.40;99.90;;;;;;5094310;28;20559;-67
2022/04/04 10:26:15;;;;;;;13.63;9.07;;;7.50;99.90;;;;;;5093243;28;20184;-67
2022/04/04 10:28:44;;;;;;;14.67;10.27;;;7.50;99.90;;;;;;5075079;28;20184;-67
2022/04/04 10:31:14;;;;;;;19.83;10.53;;;7.50;99.90;;;;;;5075810;28;20643;-67
2022/04/04 10:33:39;;;;;;;14.87;9.67;;;7.50;99.90;;;;;;5062640;28;20274;-67
2022/04/04 10:36:06;;;;;;;13.73;9.30;;;7.70;99.90;;;;;;5071455;28;20653;-67
2022/04/04 10:38:46;;;;;;;14.10;9.13;;;7.80;99.90;;;;;;5076137;28;20262;-67
2022/04/04 10:41:18;;;;;;;11.73;8.50;;;7.90;99.90;;;;;;5092875;28;20199;-67
2022/04/04 10:43:47;;;;;;;16.50;10.20;;;7.90;99.90;;;;;;5094403;28;20214;-67
2022/04/04 10:46:15;;;;;;;13.07;9.47;;;7.90;99.90;;;;;;5093572;28;20201;-67
2022/04/04 10:48:46;;;;;;;12.43;8.93;;;7.90;99.90;;;;;;5075473;28;20188;-67
2022/04/04 10:51:17;;;;;;;14.57;9.63;;;8.00;99.90;;;;;;5075983;28;20242;-67
2022/04/04 10:53:57;;;;;;;15.20;10.17;;;8.00;99.90;;;;;;5094269;28;20177;-65
2022/04/04 10:56:28;;;;;;;11.87;9.10;;;8.20;99.90;;;;;;5092244;28;20252;-67
2022/04/04 10:59:19;;;;;;;17.07;10.43;;;8.20;99.90;;;;;;5082989;28;20359;-67
2022/04/04 11:01:53;;;;;;;11.60;8.73;;;8.40;99.90;;;;;;5082888;28;20224;-68
2022/04/04 11:04:30;;;;;;;14.53;8.63;;;8.30;99.90;;;;;;5059058;28;20173;-67
2022/04/04 11:10:07;;;;;;;14.57;9.27;;;8.30;99.90;;;;;;5093739;28;20203;-66
2022/04/04 11:13:03;;;;;;;12.83;7.30;;;8.20;99.90;;;;;;5043608;28;20181;-67
2022/04/04 11:15:43;;;;;;;17.23;8.97;;;8.30;99.90;;;;;;5093232;28;20198;-66
2022/04/04 11:18:10;;;;;;;10.73;8.30;;;8.10;99.90;;;;;;5092941;28;20180;-69
2022/04/04 11:21:03;;;;;;;12.60;8.60;;;8.00;99.90;;;;;;5077982;28;20208;-63
2022/04/04 11:23:36;;;;;;;12.77;9.47;;;8.10;99.90;;;;;;5072854;28;20588;-68
2022/04/04 11:26:08;;;;;;;11.63;8.93;;;7.90;99.90;;;;;;5092904;28;20489;-66
2022/04/04 11:28:38;;;;;;;14.57;9.30;;;8.00;99.90;;;;;;5074638;28;20192;-66
2022/04/04 11:31:08;;;;;;;14.53;9.50;;;8.10;99.90;;;;;;5059040;28;20242;-66
2022/04/04 11:33:54;;;;;;;10.70;7.93;;;8.20;99.90;;;;;;5092928;28;20226;-66
2022/04/04 11:36:32;;;;;;;11.83;8.90;;;8.30;99.90;;;;;;5091540;28;20196;-64
2022/04/04 11:39:07;;;;;;;13.87;10.40;;;8.10;99.90;;;;;;5074013;28;20652;-66
2022/04/04 11:41:39;;;;;;;12.53;8.57;;;8.20;99.90;;;;;;5083363;28;20191;-65
2022/04/04 11:44:05;;;;;;;13.17;9.50;;;8.30;99.90;;;;;;5050104;28;20182;-66
2022/04/04 11:46:32;;;;;;;12.77;8.93;;;8.50;99.90;;;;;;5075133;28;20176;-65
2022/04/04 11:48:59;;;;;;;13.23;9.07;;;8.50;99.90;;;;;;5074564;28;20249;-65
2022/04/04 11:51:37;;;;;;;19.03;9.50;;;8.30;99.90;;;;;;5092931;28;20191;-66
2022/04/04 11:54:04;;;;;;;14.73;10.03;;;8.40;99.90;;;;;;5075115;28;20189;-66
2022/04/04 11:56:29;;;;;;;12.93;9.33;;;8.30;99.90;;;;;;5074249;28;20181;-66
2022/04/04 11:59:00;;;;;;;12.63;9.50;;;8.30;99.90;;;;;;5057742;28;20549;-65
2022/04/04 12:01:31;;;;;;;13.20;9.57;;;8.10;99.90;;;;;;5091766;28;20201;-66
2022/04/04 12:03:57;;;;;;;16.03;10.80;;;7.90;99.90;;;;;;5092466;28;20695;-67
2022/04/04 12:06:23;;;;;;;13.43;9.07;;;7.90;99.90;;;;;;5066029;28;20309;-67
2022/04/04 12:08:49;;;;;;;14.87;10.07;;;8.00;99.90;;;;;;5084491;28;20200;-67
2022/04/04 12:11:28;;;;;;;14.63;10.40;;;7.80;99.90;;;;;;5044473;28;20230;-66
2022/04/04 12:13:57;;;;;;;14.60;9.80;;;7.90;99.90;;;;;;5074708;28;20558;-67
2022/04/04 12:16:29;;;;;;;14.93;10.77;;;7.80;99.90;;;;;;5092664;28;20177;-67
2022/04/04 12:18:59;;;;;;;12.70;9.50;;;7.70;99.90;;;;;;5074277;28;20184;-67
2022/04/04 12:21:26;;;;;;;16.50;11.03;;;7.70;99.90;;;;;;5074229;28;20226;-67
2022/04/04 12:26:46;;;;;;;19.13;10.73;;;7.80;99.90;;;;;;5092432;28;20191;-69
2022/04/04 12:29:13;;;;;;;15.97;9.60;;;7.90;99.90;;;;;;5061892;28;20198;-67
2022/04/04 12:31:59;;;;;;;15.97;11.20;;;7.80;99.90;;;;;;5091460;28;20184;-67
2022/04/04 12:34:25;;;;;;;13.70;10.00;;;7.70;99.90;;;;;;5092887;28;20275;-66
2022/04/04 12:36:51;;;;;;;14.73;11.40;;;7.70;99.90;;;;;;5073427;28;20700;-68
2022/04/04 12:39:18;;;;;;;15.13;9.93;;;7.70;99.90;;;;;;5057266;28;20554;-67
2022/04/04 12:41:46;;;;;;;15.70;9.80;;;7.70;99.90;;;;;;5092427;28;20189;-67
2022/04/04 12:44:12;;;;;;;17.23;8.93;;;7.80;99.90;;;;;;5092461;28;20204;-65
2022/04/04 12:46:38;;;;;;;14.07;10.43;;;7.90;99.90;;;;;;5073823;28;20180;-67
2022/04/04 12:49:21;;;;;;;14.10;10.47;;;7.80;99.90;;;;;;5057536;28;20184;-67
2022/04/04 12:51:59;;;;;;;14.13;10.03;;;7.90;99.90;;;;;;5056390;28;20181;-64
2022/04/04 12:54:25;;;;;;;14.43;10.57;;;7.90;99.90;;;;;;5095444;28;20191;-67